Time;durP1;ratioP1;P1;durP2;ratioP2;P2;SDS_P1;SDS_P2;PMS_P1;PMS_P2;Temp;Humidity;BMP_temperature;BMP_pressure;BME280_temperature;BME280_humidity;BME280_pressure;Samples;Min_cycle;Max_cycle;Signal;HPM_P1;HPM_P2
2022/04/16 00:02:00;;;;;;;10.07;6.88;;;17.20;87.10;;;;;;5076955;28;20455;-64
2022/04/16 00:04:27;;;;;;;11.57;6.57;;;16.90;83.70;;;;;;5074810;28;20048;-63
2022/04/16 00:06:54;;;;;;;9.77;6.68;;;17.10;86.90;;;;;;5075492;28;20049;-64
2022/04/16 00:09:19;;;;;;;9.25;6.65;;;17.30;87.10;;;;;;5075031;28;20056;-63
2022/04/16 00:11:45;;;;;;;10.40;6.88;;;;;;;;;;5077896;28;20397;-64
2022/04/16 00:14:12;;;;;;;11.35;7.43;;;17.20;86.80;;;;;;5076003;28;20044;-63
2022/04/16 00:16:38;;;;;;;10.65;6.75;;;17.20;87.30;;;;;;5057645;28;20128;-64
2022/04/16 00:19:04;;;;;;;10.38;7.22;;;17.10;86.70;;;;;;5074437;28;20141;-63
2022/04/16 00:21:30;;;;;;;10.60;6.65;;;;;;;;;;5041283;28;20056;-64
2022/04/16 00:23:57;;;;;;;9.75;6.47;;;17.40;86.90;;;;;;5076351;28;20036;-63
2022/04/16 00:26:23;;;;;;;10.13;6.57;;;16.90;86.40;;;;;;5072036;28;20055;-62
2022/04/16 00:28:52;;;;;;;9.77;6.85;;;17.20;86.60;;;;;;5066642;28;20056;-64
2022/04/16 00:31:17;;;;;;;13.10;7.68;;;17.50;84.10;;;;;;5041909;28;20478;-62
2022/04/16 00:33:46;;;;;;;11.35;7.63;;;17.20;86.70;;;;;;5048590;28;20036;-62
2022/04/16 00:36:14;;;;;;;10.77;7.05;;;17.10;84.00;;;;;;5074564;28;20050;-65
2022/04/16 00:38:40;;;;;;;12.20;8.50;;;;;;;;;;5072850;28;20045;-62
2022/04/16 00:41:06;;;;;;;11.85;8.13;;;17.10;86.80;;;;;;5057525;28;20058;-62
2022/04/16 00:43:32;;;;;;;12.38;8.40;;;17.00;86.60;;;;;;5077314;28;20044;-63
2022/04/16 00:45:59;;;;;;;13.10;8.57;;;;;;;;;;5086459;28;20075;-63
2022/04/16 00:48:25;;;;;;;12.52;8.27;;;16.90;87.00;;;;;;5093831;28;20047;-63
2022/04/16 00:50:52;;;;;;;12.02;8.38;;;17.10;87.20;;;;;;5077602;28;20071;-64
2022/04/16 00:53:17;;;;;;;13.73;8.80;;;16.90;84.50;;;;;;5077353;28;20048;-64
2022/04/16 00:55:43;;;;;;;14.43;8.77;;;;;;;;;;5078117;28;20048;-63
2022/04/16 00:58:09;;;;;;;13.02;8.90;;;17.10;87.50;;;;;;5082564;28;20493;-62
2022/04/16 01:00:35;;;;;;;12.88;8.43;;;16.90;84.70;;;;;;5094231;28;20067;-62
2022/04/16 01:03:01;;;;;;;13.23;9.32;;;17.00;87.30;;;;;;5081932;28;20064;-63
2022/04/16 01:05:26;;;;;;;14.02;8.88;;;17.10;84.80;;;;;;5074867;28;20125;-64
2022/04/16 01:07:53;;;;;;;13.45;8.82;;;17.00;87.20;;;;;;5076615;28;20040;-63
2022/04/16 01:10:26;;;;;;;13.07;8.82;;;16.90;87.20;;;;;;5073832;28;20099;-63
2022/04/16 01:12:52;;;;;;;16.27;9.10;;;17.20;87.30;;;;;;5074700;28;20050;-63
2022/04/16 01:15:20;;;;;;;13.52;10.00;;;17.00;87.10;;;;;;5080594;28;20103;-63
2022/04/16 01:17:49;;;;;;;13.63;9.20;;;;;;;;;;5081288;28;20059;-62
2022/04/16 01:20:16;;;;;;;16.77;9.98;;;17.00;87.20;;;;;;5090735;28;20083;-63
2022/04/16 01:22:43;;;;;;;15.75;10.77;;;17.00;84.00;;;;;;5093878;28;20095;-64
2022/04/16 01:25:09;;;;;;;15.40;10.27;;;16.90;84.70;;;;;;5095014;28;20036;-63
2022/04/16 01:27:43;;;;;;;12.68;8.93;;;17.10;87.50;;;;;;5075624;28;20086;-63
2022/04/16 01:30:15;;;;;;;14.25;9.35;;;17.20;84.90;;;;;;5075727;28;20055;-63
2022/04/16 01:32:41;;;;;;;16.23;10.27;;;17.10;87.50;;;;;;5073072;28;20055;-63
2022/04/16 01:35:07;;;;;;;13.57;9.90;;;16.80;84.70;;;;;;5073331;28;20040;-62
2022/04/16 01:37:37;;;;;;;14.23;9.82;;;17.30;87.50;;;;;;5073737;28;20084;-63
2022/04/16 01:40:05;;;;;;;13.90;9.70;;;17.20;87.40;;;;;;5076404;28;20087;-62
2022/04/16 01:42:32;;;;;;;14.60;10.23;;;;;;;;;;5074925;28;20055;-63
2022/04/16 01:45:00;;;;;;;15.20;9.43;;;17.10;87.50;;;;;;5073985;28;20071;-62
2022/04/16 01:47:27;;;;;;;13.27;9.80;;;17.20;84.70;;;;;;5056394;28;20127;-62
2022/04/16 01:49:54;;;;;;;13.45;9.27;;;17.00;87.10;;;;;;5040549;28;20089;-62
2022/04/16 01:52:21;;;;;;;12.20;9.32;;;16.80;84.40;;;;;;5072756;28;20506;-63
2022/04/16 01:54:47;;;;;;;13.05;9.80;;;17.00;87.10;;;;;;5056977;28;20119;-63
2022/04/16 01:57:13;;;;;;;15.65;10.35;;;16.90;87.70;;;;;;5072557;28;20119;-62
2022/04/16 01:59:39;;;;;;;13.05;9.73;;;17.10;84.50;;;;;;5055973;28;20519;-62
2022/04/16 02:02:05;;;;;;;14.77;9.88;;;16.90;87.00;;;;;;5075387;28;20045;-62
2022/04/16 02:04:32;;;;;;;15.65;10.35;;;17.00;84.50;;;;;;5074051;28;20068;-62
2022/04/16 02:06:58;;;;;;;14.15;10.10;;;17.10;86.50;;;;;;5073985;28;20086;-62
2022/04/16 02:09:24;;;;;;;15.27;10.60;;;17.10;87.70;;;;;;5073971;28;20066;-62
2022/04/16 02:11:49;;;;;;;15.40;10.52;;;17.00;87.30;;;;;;5086695;28;20047;-62
2022/04/16 02:14:15;;;;;;;15.18;10.73;;;17.00;87.30;;;;;;5075654;28;20121;-62
2022/04/16 02:16:41;;;;;;;14.52;10.68;;;17.00;87.20;;;;;;5093486;28;20095;-63
2022/04/16 02:19:06;;;;;;;14.35;10.25;;;17.00;87.20;;;;;;5092885;28;20048;-63
2022/04/16 02:21:32;;;;;;;15.15;11.07;;;17.10;87.50;;;;;;5087102;28;20040;-62
2022/04/16 02:23:59;;;;;;;15.57;10.73;;;16.90;83.60;;;;;;5073796;28;20036;-62
2022/04/16 02:26:26;;;;;;;15.57;10.75;;;16.90;85.30;;;;;;5072430;28;20123;-63
2022/04/16 02:28:52;;;;;;;15.30;10.77;;;17.10;87.40;;;;;;5072693;28;20044;-62
2022/04/16 02:31:17;;;;;;;14.18;9.93;;;17.00;84.50;;;;;;5075384;28;20051;-62
2022/04/16 02:33:43;;;;;;;17.42;11.10;;;17.00;87.10;;;;;;5073585;28;20044;-62
2022/04/16 02:36:09;;;;;;;14.82;10.63;;;17.00;86.90;;;;;;5073708;28;20045;-62
2022/04/16 02:38:35;;;;;;;15.73;10.80;;;17.00;86.90;;;;;;5073273;28;20044;-62
2022/04/16 02:41:01;;;;;;;17.10;11.25;;;16.90;84.40;;;;;;5071803;28;20048;-62
2022/04/16 02:43:27;;;;;;;14.63;10.57;;;;;;;;;;5073514;28;20064;-65
2022/04/16 02:48:37;;;;;;;15.45;10.65;;;17.00;87.00;;;;;;5093670;28;20079;-63
2022/04/16 02:51:02;;;;;;;15.63;11.60;;;17.00;87.10;;;;;;5093704;28;20464;-62
2022/04/16 02:53:29;;;;;;;16.65;10.52;;;16.80;84.40;;;;;;5080237;28;20478;-62
2022/04/16 02:55:55;;;;;;;16.50;11.23;;;16.60;86.80;;;;;;5073393;28;20428;-62
2022/04/16 02:58:22;;;;;;;17.60;11.60;;;17.00;84.40;;;;;;5055280;28;20051;-62
2022/04/16 03:00:48;;;;;;;16.35;11.32;;;16.90;86.80;;;;;;5055809;28;20080;-63
2022/04/16 03:03:14;;;;;;;17.20;11.68;;;16.90;87.20;;;;;;5077662;28;20186;-63
2022/04/16 03:05:41;;;;;;;15.82;11.32;;;16.80;86.70;;;;;;5076140;28;20159;-63
2022/04/16 03:08:07;;;;;;;19.15;11.50;;;16.80;86.70;;;;;;5096085;28;20047;-63
2022/04/16 03:10:33;;;;;;;16.08;11.57;;;16.90;84.10;;;;;;5079494;28;20076;-62
2022/04/16 03:12:59;;;;;;;17.83;11.50;;;16.80;86.50;;;;;;5095171;28;20051;-62
2022/04/16 03:18:09;;;;;;;14.85;11.07;;;16.90;86.60;;;;;;5091115;28;20102;-62
2022/04/16 03:20:37;;;;;;;16.40;11.30;;;16.70;83.80;;;;;;5059471;28;20087;-62
2022/04/16 03:23:02;;;;;;;15.18;11.25;;;16.80;86.60;;;;;;5077105;28;20101;-62
2022/04/16 03:25:28;;;;;;;15.30;10.95;;;16.80;86.60;;;;;;5076787;28;20049;-63
2022/04/16 03:27:55;;;;;;;17.77;11.88;;;16.70;86.70;;;;;;5075850;28;20040;-63
2022/04/16 03:30:23;;;;;;;18.25;11.85;;;17.00;86.70;;;;;;5058863;28;20048;-63
2022/04/16 03:32:49;;;;;;;16.85;11.55;;;16.90;86.60;;;;;;5075467;28;20298;-62
2022/04/16 03:35:14;;;;;;;17.25;12.38;;;16.70;83.70;;;;;;5081869;28;20071;-62
2022/04/16 03:37:40;;;;;;;16.35;11.20;;;16.80;86.50;;;;;;5065084;28;20134;-63
2022/04/16 03:40:07;;;;;;;15.85;11.63;;;17.00;84.00;;;;;;5076792;28;20525;-62
2022/04/16 03:42:33;;;;;;;17.58;12.05;;;;;;;;;;5075246;28;20440;-63
2022/04/16 03:45:00;;;;;;;18.90;12.27;;;16.80;86.50;;;;;;5074984;28;20123;-62
2022/04/16 03:47:27;;;;;;;18.02;12.43;;;16.70;83.90;;;;;;5077734;28;20039;-62
2022/04/16 03:49:54;;;;;;;18.83;12.68;;;16.60;86.50;;;;;;5085655;28;20075;-62
2022/04/16 03:52:20;;;;;;;17.42;12.40;;;16.80;83.90;;;;;;5094439;28;20247;-62
2022/04/16 04:00:14;;;;;;;17.05;12.55;;;16.70;83.90;;;;;;5076478;28;20044;-62
2022/04/16 04:02:40;;;;;;;19.08;13.50;;;16.60;86.50;;;;;;5076403;28;20047;-62
2022/04/16 04:05:06;;;;;;;19.38;13.38;;;16.60;86.50;;;;;;5074689;28;20450;-62
2022/04/16 04:07:32;;;;;;;18.77;12.95;;;16.50;83.70;;;;;;5059514;28;20390;-62
2022/04/16 04:09:58;;;;;;;17.35;12.90;;;16.60;86.40;;;;;;5075114;28;20464;-63
2022/04/16 04:12:24;;;;;;;17.08;13.48;;;16.50;86.70;;;;;;5075778;28;20076;-62
2022/04/16 04:14:50;;;;;;;21.45;14.13;;;16.60;86.50;;;;;;5075726;28;20409;-62
2022/04/16 04:17:15;;;;;;;18.25;13.32;;;16.50;86.30;;;;;;5092423;28;20044;-62
2022/04/16 04:19:42;;;;;;;18.55;12.65;;;16.70;86.40;;;;;;5074619;28;20045;-62
2022/04/16 04:22:10;;;;;;;18.17;12.15;;;16.60;86.50;;;;;;5074822;28;20119;-62
2022/04/16 04:24:37;;;;;;;20.52;12.88;;;16.70;86.40;;;;;;5076013;28;20122;-63
2022/04/16 04:27:03;;;;;;;18.52;12.57;;;16.60;86.40;;;;;;5074555;28;20048;-62
2022/04/16 04:29:29;;;;;;;19.10;12.27;;;16.50;86.40;;;;;;5075997;28;20508;-63
2022/04/16 04:31:55;;;;;;;19.23;12.93;;;16.40;83.70;;;;;;5075528;28;20045;-62
2022/04/16 04:34:21;;;;;;;18.85;12.45;;;16.60;86.50;;;;;;5076482;28;20086;-62
2022/04/16 04:36:47;;;;;;;18.20;11.93;;;16.90;86.70;;;;;;5075427;28;20036;-62
2022/04/16 04:39:13;;;;;;;17.23;12.60;;;16.50;83.60;;;;;;5077088;28;20041;-62
2022/04/16 04:41:39;;;;;;;20.27;12.18;;;16.70;86.40;;;;;;5075617;28;20460;-62
2022/04/16 04:44:05;;;;;;;17.75;12.70;;;16.80;84.50;;;;;;5088506;28;20079;-62
2022/04/16 04:46:31;;;;;;;17.38;12.23;;;16.40;86.20;;;;;;5094249;28;20087;-62
2022/04/16 04:48:57;;;;;;;20.63;12.75;;;16.60;86.20;;;;;;5092735;28;20048;-62
2022/04/16 04:51:22;;;;;;;18.65;12.55;;;16.40;83.40;;;;;;5075344;28;20556;-62
2022/04/16 04:53:48;;;;;;;18.40;12.07;;;16.50;86.10;;;;;;5076998;28;20114;-63
2022/04/16 04:56:14;;;;;;;19.25;11.77;;;16.60;83.50;;;;;;5073805;28;20106;-62
2022/04/16 04:58:39;;;;;;;17.85;12.10;;;16.70;86.10;;;;;;5075106;28;20043;-63
2022/04/16 05:01:05;;;;;;;19.13;11.98;;;16.60;86.40;;;;;;5074145;28;20494;-62
2022/04/16 05:03:31;;;;;;;17.38;11.43;;;16.80;83.40;;;;;;5074912;28;20075;-62
2022/04/16 05:05:56;;;;;;;15.18;10.65;;;16.60;85.80;;;;;;5075116;28;20102;-62
2022/04/16 05:08:22;;;;;;;15.93;11.10;;;16.70;83.20;;;;;;5075394;28;20477;-62
2022/04/16 05:10:48;;;;;;;18.17;11.75;;;16.80;85.70;;;;;;5079091;28;20036;-63
2022/04/16 05:13:13;;;;;;;16.73;10.68;;;16.90;85.70;;;;;;5064941;28;20049;-62
2022/04/16 05:15:39;;;;;;;18.05;12.30;;;16.90;85.60;;;;;;5089506;28;20055;-62
2022/04/16 05:18:05;;;;;;;15.10;10.43;;;17.00;85.50;;;;;;5094004;28;20123;-63
2022/04/16 05:20:31;;;;;;;16.15;11.40;;;16.90;82.70;;;;;;5094859;28;20490;-62
2022/04/16 05:22:57;;;;;;;16.80;10.88;;;;;;;;;;5091028;28;20079;-63
2022/04/16 05:25:23;;;;;;;15.35;10.48;;;17.00;85.30;;;;;;5093977;28;20114;-62
2022/04/16 05:27:48;;;;;;;16.75;10.05;;;17.00;85.30;;;;;;5093387;28;20143;-62
2022/04/16 05:30:22;;;;;;;14.95;10.60;;;;;;;;;;5085507;28;20422;-65
2022/04/16 05:32:49;;;;;;;15.35;10.40;;;17.20;85.20;;;;;;5075961;28;20055;-62
2022/04/16 05:35:15;;;;;;;14.25;9.93;;;17.20;84.90;;;;;;5087729;28;20490;-62
2022/04/16 05:37:41;;;;;;;16.65;10.85;;;17.20;84.80;;;;;;5076285;28;20039;-62
2022/04/16 05:40:08;;;;;;;16.15;10.05;;;17.10;84.60;;;;;;5093194;28;20044;-62
2022/04/16 05:42:43;;;;;;;15.27;10.15;;;17.60;84.40;;;;;;5091290;28;20032;-62
2022/04/16 05:45:10;;;;;;;16.45;10.75;;;17.60;84.30;;;;;;5093008;28;20044;-62
2022/04/16 05:47:35;;;;;;;14.35;9.32;;;17.80;84.20;;;;;;5076533;28;20040;-62
2022/04/16 05:50:01;;;;;;;13.38;9.43;;;18.00;81.20;;;;;;5093423;28;20040;-62
2022/04/16 05:52:27;;;;;;;15.77;10.20;;;17.70;83.50;;;;;;5092407;28;20036;-62
2022/04/16 05:54:53;;;;;;;15.32;9.98;;;18.30;83.40;;;;;;5042304;28;20048;-62
2022/04/16 05:57:20;;;;;;;13.95;9.60;;;18.30;83.10;;;;;;5072592;28;20052;-62
2022/04/16 05:59:45;;;;;;;14.65;8.82;;;18.40;82.90;;;;;;5072887;28;20049;-62
2022/04/16 06:02:11;;;;;;;13.23;8.98;;;18.40;79.50;;;;;;5076773;28;20458;-62
2022/04/16 06:04:37;;;;;;;13.18;8.02;;;;;;;;;;5083331;28;20405;-64
2022/04/16 06:07:03;;;;;;;15.70;8.80;;;18.60;81.50;;;;;;5073969;28;20040;-62
2022/04/16 06:09:29;;;;;;;12.88;8.77;;;18.70;81.40;;;;;;5073125;28;20062;-62
2022/04/16 06:12:04;;;;;;;13.70;7.93;;;18.90;81.20;;;;;;5074387;28;20466;-63
2022/04/16 06:14:31;;;;;;;12.10;7.53;;;19.00;81.00;;;;;;5073492;28;20044;-62
2022/04/16 06:16:57;;;;;;;12.48;7.90;;;19.20;80.70;;;;;;5072455;28;20060;-62
2022/04/16 06:19:23;;;;;;;11.98;6.97;;;19.20;80.20;;;;;;5073496;28;20479;-62
2022/04/16 06:21:49;;;;;;;12.48;7.68;;;19.50;79.80;;;;;;5073823;28;20087;-62
2022/04/16 06:24:15;;;;;;;13.27;7.72;;;19.40;79.80;;;;;;5073431;28;20087;-62
2022/04/16 06:26:42;;;;;;;12.93;7.35;;;19.50;79.80;;;;;;5075840;28;20076;-62
2022/04/16 06:29:08;;;;;;;11.15;7.00;;;19.40;79.40;;;;;;5073339;28;20537;-62
2022/04/16 06:31:34;;;;;;;12.10;7.22;;;19.60;79.40;;;;;;5073994;28;20044;-62
2022/04/16 06:34:00;;;;;;;10.23;6.60;;;;;;;;;;5073519;28;20515;-62
2022/04/16 06:36:26;;;;;;;11.65;6.20;;;19.50;78.50;;;;;;5085737;28;20036;-62
2022/04/16 06:38:51;;;;;;;11.93;6.35;;;19.60;78.40;;;;;;5071826;28;20128;-62
2022/04/16 06:41:17;;;;;;;10.82;6.65;;;19.80;78.30;;;;;;5073596;28;20143;-62
2022/04/16 06:43:43;;;;;;;10.32;5.82;;;19.80;78.30;;;;;;5072739;28;20049;-62
2022/04/16 06:46:08;;;;;;;9.77;6.47;;;19.80;78.10;;;;;;5072963;28;20110;-62
2022/04/16 06:48:34;;;;;;;9.82;6.45;;;19.80;77.90;;;;;;5073317;28;20048;-63
2022/04/16 06:51:00;;;;;;;9.93;6.45;;;20.00;74.50;;;;;;5073167;28;20051;-63
2022/04/16 06:53:27;;;;;;;9.50;5.88;;;19.90;77.60;;;;;;5072191;28;20109;-62
2022/04/16 06:55:52;;;;;;;10.68;6.15;;;19.90;77.30;;;;;;5073085;28;20055;-63
2022/04/16 06:58:18;;;;;;;15.60;6.97;;;19.80;73.80;;;;;;5083550;28;20047;-62
2022/04/16 07:00:44;;;;;;;8.88;5.43;;;20.00;77.10;;;;;;5072779;28;20063;-67
2022/04/16 07:03:09;;;;;;;9.50;5.90;;;19.90;76.80;;;;;;5092694;28;20066;-64
2022/04/16 07:05:35;;;;;;;9.15;5.63;;;20.10;76.90;;;;;;5075068;28;20052;-63
2022/04/16 07:08:01;;;;;;;7.82;4.88;;;20.10;76.20;;;;;;5090729;28;20093;-63
2022/04/16 07:10:26;;;;;;;10.77;5.43;;;20.40;73.30;;;;;;5075509;28;20048;-62
2022/04/16 07:12:52;;;;;;;9.38;5.60;;;20.30;76.40;;;;;;5093148;28;20531;-64
2022/04/16 07:15:18;;;;;;;8.75;5.45;;;20.10;75.90;;;;;;5093082;28;20238;-63
2022/04/16 07:17:45;;;;;;;8.75;5.30;;;20.10;76.00;;;;;;5075449;28;20037;-63
2022/04/16 07:20:11;;;;;;;11.13;5.00;;;20.50;76.40;;;;;;5071715;28;20071;-63
2022/04/16 07:22:37;;;;;;;8.95;5.05;;;20.50;76.20;;;;;;5055269;28;20454;-64
2022/04/16 07:25:04;;;;;;;7.45;4.57;;;20.60;75.90;;;;;;5076758;28;20112;-62
2022/04/16 07:27:31;;;;;;;10.25;5.32;;;;;;;;;;5091657;28;20093;-63
2022/04/16 07:29:58;;;;;;;9.23;5.20;;;20.50;72.20;;;;;;5090928;28;20051;-64
2022/04/16 07:32:27;;;;;;;7.20;4.35;;;20.70;75.10;;;;;;5091811;28;20044;-63
2022/04/16 07:34:53;;;;;;;8.68;4.90;;;20.60;74.70;;;;;;5093105;28;20047;-62
2022/04/16 07:37:19;;;;;;;9.02;4.85;;;20.60;74.60;;;;;;5093179;28;20493;-63
2022/04/16 07:39:45;;;;;;;8.32;5.00;;;20.50;73.60;;;;;;5080235;28;20551;-62
2022/04/16 07:42:11;;;;;;;7.82;4.25;;;20.70;74.20;;;;;;5071551;28;20041;-62
2022/04/16 07:44:36;;;;;;;8.20;4.45;;;20.00;73.60;;;;;;5072565;28;20182;-63
2022/04/16 07:47:02;;;;;;;7.25;4.50;;;20.20;71.00;;;;;;5071778;28;20098;-68
2022/04/16 07:49:28;;;;;;;8.00;4.50;;;20.40;73.80;;;;;;5077446;28;20473;-63
2022/04/16 07:51:53;;;;;;;6.63;3.95;;;20.40;71.00;;;;;;5096698;28;20040;-62
2022/04/16 07:54:20;;;;;;;6.18;3.67;;;;;;;;;;5095131;28;20097;-63
2022/04/16 07:56:45;;;;;;;6.72;3.70;;;20.30;72.40;;;;;;5095205;28;20055;-62
2022/04/16 07:59:12;;;;;;;6.35;3.72;;;20.20;70.30;;;;;;5096779;28;20044;-63
2022/04/16 08:01:38;;;;;;;7.50;3.50;;;20.00;72.70;;;;;;5079511;28;20115;-63
2022/04/16 08:04:04;;;;;;;7.03;3.80;;;19.70;72.50;;;;;;5074814;28;20550;-62
2022/04/16 08:06:29;;;;;;;6.28;3.67;;;19.70;72.20;;;;;;5075304;28;20041;-63
2022/04/16 08:09:00;;;;;;;8.00;3.85;;;20.10;71.90;;;;;;5076203;28;20062;-63
2022/04/16 08:11:29;;;;;;;6.18;3.63;;;19.90;69.00;;;;;;5077616;28;20067;-63
2022/04/16 08:13:54;;;;;;;7.82;3.72;;;19.80;71.60;;;;;;5076330;28;20044;-63
2022/04/16 08:16:20;;;;;;;8.18;3.90;;;19.90;71.70;;;;;;5095948;28;20056;-63
2022/04/16 08:18:46;;;;;;;7.63;3.72;;;20.00;71.60;;;;;;5096308;28;20051;-63
2022/04/16 08:21:12;;;;;;;8.43;3.65;;;20.20;71.70;;;;;;5094033;28;20135;-63
2022/04/16 08:23:44;;;;;;;6.32;3.28;;;20.10;71.40;;;;;;5074861;28;20052;-64
2022/04/16 08:26:10;;;;;;;5.93;3.33;;;20.30;70.90;;;;;;5074050;28;20044;-63
2022/04/16 08:28:36;;;;;;;6.18;3.28;;;20.30;71.30;;;;;;5075933;28;20141;-63
2022/04/16 08:31:02;;;;;;;7.97;3.65;;;20.30;71.20;;;;;;5074023;28;20094;-63
2022/04/16 08:33:28;;;;;;;5.60;2.88;;;20.10;70.90;;;;;;5077151;28;20078;-63
2022/04/16 08:35:54;;;;;;;5.43;3.00;;;20.60;70.90;;;;;;5075442;28;20087;-63
2022/04/16 08:38:20;;;;;;;6.80;3.72;;;20.40;70.60;;;;;;5074115;28;20076;-63
2022/04/16 08:40:47;;;;;;;5.70;3.20;;;20.50;70.00;;;;;;5077847;28;20470;-63
2022/04/16 08:43:13;;;;;;;6.60;3.20;;;20.60;70.70;;;;;;5086460;28;20044;-63
2022/04/16 08:45:39;;;;;;;6.60;3.70;;;20.60;70.70;;;;;;5057524;28;20051;-63
2022/04/16 08:48:05;;;;;;;6.10;3.08;;;20.30;67.10;;;;;;5074401;28;20045;-63
2022/04/16 08:50:31;;;;;;;7.55;3.25;;;20.60;70.30;;;;;;5074302;28;20433;-63
2022/04/16 08:52:57;;;;;;;6.13;3.33;;;20.50;70.10;;;;;;5074218;28;20094;-63
2022/04/16 08:55:23;;;;;;;7.03;2.92;;;20.70;70.20;;;;;;5079047;28;20097;-64
2022/04/16 08:57:48;;;;;;;7.35;3.17;;;20.50;69.60;;;;;;5090463;28;20044;-63
2022/04/16 09:00:15;;;;;;;5.35;2.45;;;20.60;67.10;;;;;;5092986;28;20126;-62
2022/04/16 09:02:51;;;;;;;4.50;2.58;;;20.60;70.00;;;;;;5095090;28;20077;-62
2022/04/16 09:16:20;;;;;;;8.43;3.78;;;20.80;69.10;;;;;;5091613;27;20397;-67
2022/04/16 09:18:53;;;;;;;7.53;3.92;;;20.70;66.10;;;;;;5089880;28;20044;-70
2022/04/16 09:21:23;;;;;;;7.88;3.28;;;20.80;69.80;;;;;;5119616;28;20067;-67
2022/04/16 09:23:50;;;;;;;9.30;3.47;;;20.90;67.40;;;;;;5070199;28;20044;-70
2022/04/16 09:26:31;;;;;;;5.82;3.17;;;20.80;69.90;;;;;;5069597;28;20115;-70
2022/04/16 09:29:01;;;;;;;7.45;3.50;;;20.70;70.10;;;;;;5070665;28;20371;-71
2022/04/16 09:31:30;;;;;;;6.95;3.28;;;20.60;70.00;;;;;;5069148;28;20048;-71
2022/04/16 09:33:56;;;;;;;7.35;3.67;;;20.70;69.60;;;;;;5070253;28;20091;-70
2022/04/16 09:36:28;;;;;;;7.57;3.30;;;20.80;69.50;;;;;;5086905;28;20040;-70
2022/04/16 09:39:02;;;;;;;9.02;3.10;;;21.10;70.10;;;;;;5081601;28;20044;-71
2022/04/16 09:41:35;;;;;;;7.50;3.10;;;20.70;69.50;;;;;;5070370;28;20102;-71
2022/04/16 09:44:01;;;;;;;6.30;3.30;;;20.90;69.80;;;;;;5069243;28;20371;-71
2022/04/16 09:46:28;;;;;;;5.38;3.10;;;20.80;69.80;;;;;;5051762;28;20087;-71
2022/04/16 09:49:04;;;;;;;6.82;3.30;;;20.70;69.80;;;;;;5070213;28;20048;-72
2022/04/16 09:51:40;;;;;;;7.32;3.65;;;20.90;69.80;;;;;;5070162;28;20106;-71
2022/04/16 09:54:06;;;;;;;6.65;3.30;;;20.70;69.50;;;;;;5068956;28;20094;-71
2022/04/16 09:56:34;;;;;;;6.85;3.85;;;20.70;69.50;;;;;;5070548;28;20045;-71
2022/04/16 09:59:04;;;;;;;7.00;3.47;;;20.60;65.50;;;;;;5071309;28;20056;-70
2022/04/16 10:01:31;;;;;;;7.03;3.58;;;20.60;67.20;;;;;;5090269;28;20507;-71
2022/04/16 10:03:57;;;;;;;6.97;4.20;;;20.30;69.50;;;;;;5089716;28;20546;-71
2022/04/16 10:06:22;;;;;;;7.57;4.22;;;20.50;66.90;;;;;;5088692;28;20063;-69
2022/04/16 10:08:49;;;;;;;10.05;4.30;;;20.60;69.90;;;;;;5090089;28;20488;-71
2022/04/16 10:11:20;;;;;;;6.93;3.83;;;20.40;69.80;;;;;;5088856;28;20063;-70
2022/04/16 10:13:53;;;;;;;8.18;3.95;;;20.40;69.80;;;;;;5056577;28;20126;-69
2022/04/16 10:16:21;;;;;;;6.90;3.60;;;20.40;70.00;;;;;;5077681;28;20134;-70
2022/04/16 10:18:49;;;;;;;6.53;3.80;;;20.20;70.10;;;;;;5071841;28;20033;-70
2022/04/16 10:21:15;;;;;;;7.03;3.78;;;20.30;67.10;;;;;;5054841;28;20127;-70
2022/04/16 10:23:41;;;;;;;6.10;3.67;;;20.30;70.30;;;;;;5056251;28;20071;-71
2022/04/16 10:26:11;;;;;;;6.78;3.17;;;20.30;70.30;;;;;;5055330;28;20116;-70
2022/04/16 10:28:40;;;;;;;7.03;3.05;;;20.30;70.30;;;;;;5088024;28;20084;-71
2022/04/16 10:31:07;;;;;;;5.88;3.40;;;20.20;70.30;;;;;;5073417;28;20052;-71
2022/04/16 10:33:32;;;;;;;8.93;3.83;;;20.30;69.40;;;;;;5075775;28;20493;-73
2022/04/16 10:36:03;;;;;;;8.32;3.33;;;20.10;70.40;;;;;;5054607;28;20037;-63
2022/04/16 10:38:40;;;;;;;7.60;3.03;;;20.30;70.20;;;;;;5067614;28;20041;-61
2022/04/16 10:41:18;;;;;;;8.10;3.45;;;20.40;70.10;;;;;;5056004;28;20402;-64
2022/04/16 10:44:00;;;;;;;7.25;3.20;;;20.30;70.00;;;;;;5055882;28;20135;-63
2022/04/16 10:46:51;;;;;;;7.75;3.10;;;20.00;69.70;;;;;;5061773;28;20053;-64
2022/04/16 10:49:24;;;;;;;6.22;2.80;;;20.40;65.90;;;;;;5074606;28;20505;-64
2022/04/16 10:51:55;;;;;;;5.53;2.90;;;20.20;69.70;;;;;;5074633;28;20051;-63
2022/04/16 10:54:28;;;;;;;5.03;2.90;;;20.00;69.40;;;;;;5059190;28;20044;-70
2022/04/16 10:56:54;;;;;;;8.80;2.72;;;20.10;69.60;;;;;;5066771;28;20045;-70
2022/04/16 10:59:34;;;;;;;6.00;3.13;;;20.20;69.60;;;;;;5059484;28;20556;-71
2022/04/16 11:02:01;;;;;;;7.05;3.28;;;20.10;69.30;;;;;;5073672;28;20052;-69
2022/04/16 11:04:27;;;;;;;6.78;3.25;;;20.00;66.70;;;;;;5060583;28;20056;-71
2022/04/16 11:06:57;;;;;;;9.30;3.50;;;19.90;69.10;;;;;;5061139;28;20421;-70
2022/04/16 11:09:23;;;;;;;7.78;3.50;;;20.10;69.00;;;;;;5075186;28;20041;-70
2022/04/16 11:11:51;;;;;;;6.82;3.40;;;20.10;69.00;;;;;;5075089;28;20576;-70
2022/04/16 11:14:19;;;;;;;7.30;3.63;;;20.10;69.00;;;;;;5074868;28;20053;-71
2022/04/16 11:16:48;;;;;;;6.70;3.50;;;20.00;64.20;;;;;;5071847;28;20124;-70
2022/04/16 11:19:15;;;;;;;6.45;3.38;;;20.00;68.80;;;;;;5055695;28;20056;-70
2022/04/16 11:21:41;;;;;;;7.00;3.17;;;20.00;68.70;;;;;;5070249;28;20040;-70
2022/04/16 11:24:07;;;;;;;6.25;3.13;;;19.90;68.50;;;;;;5075090;28;20546;-71
2022/04/16 11:34:51;;;;;;;4.60;2.35;;;20.10;68.40;;;;;;5054481;28;20132;-70
2022/04/16 11:37:17;;;;;;;5.60;2.85;;;;;;;;;;5066210;28;20056;-71
2022/04/16 11:39:46;;;;;;;6.00;2.42;;;20.00;63.40;;;;;;5068911;28;20047;-70
2022/04/16 11:42:11;;;;;;;5.32;2.50;;;19.90;68.20;;;;;;5073495;28;20153;-71
2022/04/16 11:44:45;;;;;;;6.53;2.70;;;19.90;68.10;;;;;;5056619;28;20076;-70
2022/04/16 11:47:15;;;;;;;6.10;3.03;;;19.80;65.50;;;;;;5073457;28;20044;-70
2022/04/16 11:50:01;;;;;;;6.00;2.80;;;19.90;67.90;;;;;;5045885;28;20178;-70
2022/04/16 11:52:28;;;;;;;6.72;2.50;;;20.10;68.00;;;;;;5054852;28;20123;-64
2022/04/16 11:55:03;;;;;;;13.05;4.00;;;19.90;67.70;;;;;;5062474;28;20110;-64
2022/04/16 11:57:29;;;;;;;7.15;2.88;;;20.00;67.50;;;;;;5091208;28;20041;-63
2022/04/16 12:00:00;;;;;;;9.50;3.25;;;19.80;67.40;;;;;;5052114;28;20122;-64
2022/04/16 12:02:39;;;;;;;10.35;3.58;;;20.00;67.30;;;;;;5054464;28;20045;-66
2022/04/16 12:05:16;;;;;;;6.53;2.80;;;19.90;64.90;;;;;;5052497;28;20084;-65
2022/04/16 12:07:46;;;;;;;8.77;2.95;;;19.70;67.00;;;;;;5061806;28;20044;-75
2022/04/16 12:10:15;;;;;;;5.75;2.63;;;19.80;67.10;;;;;;5073927;28;20123;-73
2022/04/16 12:12:49;;;;;;;12.68;2.58;;;20.00;66.90;;;;;;5040861;28;20048;-72
2022/04/16 12:15:28;;;;;;;7.45;2.60;;;19.90;66.90;;;;;;5036008;28;20096;-73
2022/04/16 12:17:55;;;;;;;7.07;2.65;;;20.10;67.00;;;;;;5053805;28;20084;-70
2022/04/16 12:20:21;;;;;;;10.88;2.70;;;20.10;67.00;;;;;;5053571;28;20041;-68
2022/04/16 12:22:47;;;;;;;7.30;2.47;;;;;;;;;;5019834;28;20445;-71
2022/04/16 12:25:14;;;;;;;4.32;1.73;;;20.10;66.40;;;;;;5054408;28;20055;-71
2022/04/16 12:27:48;;;;;;;4.93;2.03;;;19.90;66.40;;;;;;5053822;28;20105;-73
2022/04/16 12:30:14;;;;;;;6.38;2.15;;;20.00;66.50;;;;;;5072347;28;20401;-71
2022/04/16 12:32:41;;;;;;;4.13;1.98;;;;;;;;;;5072610;28;20508;-71
2022/04/16 12:35:07;;;;;;;7.65;2.15;;;19.90;66.00;;;;;;5073671;28;20063;-68
2022/04/16 12:37:32;;;;;;;5.28;2.17;;;20.10;66.10;;;;;;5073871;28;20037;-69
2022/04/16 12:39:59;;;;;;;5.63;2.22;;;19.80;66.00;;;;;;5069022;28;20072;-64
2022/04/16 12:42:25;;;;;;;7.47;2.33;;;;;;;;;;5069496;28;20129;-68
2022/04/16 12:44:51;;;;;;;5.60;2.10;;;19.90;66.20;;;;;;5071988;28;20048;-68
2022/04/16 12:47:17;;;;;;;4.55;2.30;;;;;;;;;;5052506;28;20091;-67
2022/04/16 12:49:43;;;;;;;5.10;2.10;;;20.00;66.50;;;;;;5058565;28;20048;-68
2022/04/16 12:52:09;;;;;;;5.78;1.95;;;19.90;66.70;;;;;;5058036;28;20077;-68
2022/04/16 12:54:35;;;;;;;4.90;2.20;;;20.10;67.00;;;;;;5053581;28;20128;-68
2022/04/16 12:57:02;;;;;;;4.70;2.08;;;19.90;63.90;;;;;;5059939;28;20485;-67
2022/04/16 12:59:27;;;;;;;4.85;2.00;;;20.30;67.40;;;;;;5054061;28;20041;-67
2022/04/16 13:01:53;;;;;;;3.70;1.92;;;20.00;67.10;;;;;;5060406;28;20098;-68
2022/04/16 13:04:19;;;;;;;3.65;1.90;;;20.10;64.20;;;;;;5069636;28;20123;-62
2022/04/16 13:06:44;;;;;;;4.55;2.08;;;20.10;67.20;;;;;;5072466;28;20110;-65
2022/04/16 13:09:10;;;;;;;4.38;1.92;;;;;;;;;;5073069;28;20477;-62
2022/04/16 13:11:38;;;;;;;5.03;2.20;;;20.30;67.60;;;;;;5053285;28;20080;-63
2022/04/16 13:14:03;;;;;;;4.90;2.00;;;20.00;67.50;;;;;;5038233;28;20044;-64
2022/04/16 13:16:30;;;;;;;8.50;2.30;;;20.00;67.40;;;;;;5052317;28;20057;-64